Time;durP1;ratioP1;P1;durP2;ratioP2;P2;SDS_P1;SDS_P2;PMS_P1;PMS_P2;Temp;Humidity;BMP_temperature;BMP_pressure;BME280_temperature;BME280_humidity;BME280_pressure;Samples;Min_cycle;Max_cycle;Signal;HPM_P1;HPM_P2
2024/02/10 00:00:54;;;;;;;8.10;7.30;;;;;;;5.81;99.99;98500.70;104787;1261;59592;-61
2024/02/10 00:04:05;;;;;;;7.60;6.90;;;;;;;6.52;93.72;98499.45;104618;1274;73291;-60
2024/02/10 00:06:39;;;;;;;7.80;7.10;;;;;;;6.74;89.66;98501.11;105720;1255;73166;-64
2024/02/10 00:09:46;;;;;;;7.50;6.90;;;;;;;6.77;87.82;98497.45;105205;1254;71830;-62
2024/02/10 00:12:23;;;;;;;7.80;7.00;;;;;;;6.79;87.90;98493.17;105103;1261;60696;-61
2024/02/10 00:15:05;;;;;;;8.50;7.70;;;;;;;6.81;87.17;98484.77;104616;1256;59744;-61
2024/02/10 00:17:33;;;;;;;7.70;6.90;;;;;;;6.82;86.74;98485.58;104647;1255;73295;-61
2024/02/10 00:20:39;;;;;;;7.10;6.50;;;;;;;6.82;86.36;98487.13;104858;1255;69396;-60
2024/02/10 00:23:55;;;;;;;8.40;7.60;;;;;;;6.83;86.90;98485.17;104861;1255;73017;-60
2024/02/10 00:27:06;;;;;;;7.50;6.80;;;;;;;6.86;86.14;98481.90;104765;1256;60635;-59
2024/02/10 00:30:09;;;;;;;7.80;7.00;;;;;;;6.76;86.67;98482.69;104391;1260;59726;-59
2024/02/10 00:33:14;;;;;;;8.70;7.90;;;;;;;6.73;88.13;98479.70;104597;1258;73253;-59
2024/02/10 00:36:26;;;;;;;8.50;7.70;;;;;;;7.26;83.77;98481.09;104501;1258;70513;-59
2024/02/10 00:39:38;;;;;;;7.50;6.80;;;;;;;7.34;81.43;98486.43;104974;1257;73180;-60
2024/02/10 00:42:51;;;;;;;7.10;6.40;;;;;;;7.38;80.60;98494.63;104587;1259;59747;-65
2024/02/10 00:46:00;;;;;;;7.70;7.00;;;;;;;7.36;80.11;98500.48;104797;1258;59850;-59
2024/02/10 00:49:30;;;;;;;7.00;6.40;;;;;;;7.33;80.68;98498.67;105202;1257;72877;-60
2024/02/10 00:52:17;;;;;;;7.70;7.00;;;;;;;7.39;80.70;98494.38;105139;1254;68854;-60
2024/02/10 00:55:25;;;;;;;7.20;6.60;;;;;;;6.35;88.25;98497.95;105327;1255;71338;-60
2024/02/10 00:58:34;;;;;;;7.80;7.10;;;;;;;6.14;94.97;98492.24;105483;1254;59717;-61
2024/02/10 01:01:39;;;;;;;7.20;6.60;;;;;;;6.15;96.84;98489.76;105551;1255;60104;-61
2024/02/10 01:05:09;;;;;;;7.00;6.40;;;;;;;6.14;98.20;98486.33;105342;1255;72754;-61
2024/02/10 01:08:21;;;;;;;8.70;7.10;;;;;;;6.14;98.07;98482.86;105128;1255;70682;-59
2024/02/10 01:11:33;;;;;;;8.40;7.60;;;;;;;6.17;98.39;98475.75;104643;1272;72339;-59
2024/02/10 01:14:45;;;;;;;7.80;7.10;;;;;;;6.16;98.17;98469.72;104690;1258;61647;-61
2024/02/10 01:18:00;;;;;;;8.20;7.50;;;;;;;6.51;95.51;98461.52;104413;1255;60082;-59
2024/02/10 01:21:10;;;;;;;8.30;7.50;;;;;;;6.17;96.90;98462.89;105099;1256;72629;-60
2024/02/10 01:23:46;;;;;;;8.30;7.60;;;;;;;6.07;98.73;98462.80;104686;1260;69102;-60
2024/02/10 01:26:36;;;;;;;8.10;7.40;;;;;;;5.98;98.83;98467.14;105401;1255;71744;-61
2024/02/10 01:29:43;;;;;;;7.90;7.20;;;;;;;5.94;100.00;98464.55;104912;1257;59743;-61
2024/02/10 01:32:57;;;;;;;8.70;7.90;;;;;;;6.00;100.00;98462.56;105587;1255;59674;-60
2024/02/10 01:36:09;;;;;;;8.10;7.40;;;;;;;5.98;100.00;98462.48;105640;1254;73813;-62
2024/02/10 01:39:23;;;;;;;8.20;7.50;;;;;;;6.01;100.00;98457.45;104395;1255;69697;-60
2024/02/10 01:42:37;;;;;;;8.60;7.90;;;;;;;6.04;99.89;98450.55;104951;1256;72525;-60
2024/02/10 01:45:45;;;;;;;8.50;7.60;;;;;;;5.99;100.00;98455.15;104596;1260;60638;-60
2024/02/10 01:48:58;;;;;;;8.70;7.90;;;;;;;6.03;100.00;98459.65;105252;1255;60033;-61
2024/02/10 01:51:57;;;;;;;8.60;7.80;;;;;;;6.10;100.00;98454.80;104529;1255;72798;-60
2024/02/10 01:54:31;;;;;;;8.70;7.90;;;;;;;6.11;99.44;98457.71;104637;1258;70034;-61
2024/02/10 01:57:24;;;;;;;8.80;8.00;;;;;;;6.06;100.00;98455.69;104811;1255;73384;-61
2024/02/10 05:58:15;;;;;;;6.50;4.80;;;;;;;6.67;100.00;98503.14;102417;1289;615780;-58
2024/02/10 06:01:26;;;;;;;5.40;4.30;;;;;;;6.37;100.00;98509.88;104413;1264;60912;-57
2024/02/10 06:04:41;;;;;;;5.90;4.90;;;;;;;6.29;100.00;98520.67;104206;1267;60176;-57
2024/02/10 06:07:26;;;;;;;5.40;4.90;;;;;;;6.31;100.00;98517.60;104525;1260;73011;-58
2024/02/10 06:10:30;;;;;;;6.00;4.70;;;;;;;6.34;100.00;98523.58;104473;1259;818773;-57
2024/02/10 06:13:42;;;;;;;5.60;4.70;;;;;;;6.43;100.00;98521.10;104578;1254;72467;-56
2024/02/10 06:16:55;;;;;;;4.70;4.30;;;;;;;6.91;100.00;98520.52;105037;1254;62581;-56
2024/02/10 06:19:53;;;;;;;5.20;4.70;;;;;;;6.93;100.00;98516.41;104689;1254;60215;-57
2024/02/10 06:22:27;;;;;;;4.50;4.10;;;;;;;6.93;100.00;98516.27;104904;1266;70826;-57
2024/02/10 06:24:56;;;;;;;5.10;4.60;;;;;;;6.92;99.72;98517.48;106024;1257;69440;-58
2024/02/10 06:27:26;;;;;;;4.80;4.40;;;;;;;7.07;98.82;98519.82;105558;1257;73280;-58
2024/02/10 06:30:33;;;;;;;4.40;3.90;;;;;;;7.12;98.34;98515.02;106129;1254;60930;-57
2024/02/10 06:33:29;;;;;;;4.90;4.30;;;;;;;7.09;97.74;98516.77;105285;1254;59921;-57
2024/02/10 06:36:34;;;;;;;5.00;4.20;;;;;;;7.05;98.35;98524.21;105304;1254;71466;-60
2024/02/10 06:39:32;;;;;;;4.10;3.70;;;;;;;6.88;99.47;98521.00;105013;1254;70061;-62
2024/02/10 06:42:25;;;;;;;4.50;3.60;;;;;;;6.86;99.51;98521.14;105480;1254;72828;-59
2024/02/10 06:45:30;;;;;;;4.80;4.40;;;;;;;6.92;98.70;98522.21;105262;1254;60819;-59
2024/02/10 06:48:45;;;;;;;4.10;3.70;;;;;;;6.86;99.52;98526.70;105493;1254;60162;-59
2024/02/10 06:52:02;;;;;;;4.20;3.80;;;;;;;7.17;96.95;98529.10;105073;1253;73418;-60
2024/02/10 06:55:13;;;;;;;4.70;4.20;;;;;;;7.22;96.21;98527.45;104610;1257;69555;-60
2024/02/10 06:58:22;;;;;;;4.00;3.70;;;;;;;7.22;95.72;98531.63;106110;1257;72543;-59
2024/02/10 07:01:34;;;;;;;5.80;3.70;;;;;;;7.18;95.52;98533.39;105279;1251;62588;-59
2024/02/10 07:04:46;;;;;;;5.00;4.20;;;;;;;7.23;95.67;98536.13;105170;1250;60904;-58
2024/02/10 07:07:57;;;;;;;4.20;3.80;;;;;;;7.12;95.88;98538.73;106090;1250;73284;-58
2024/02/10 07:11:12;;;;;;;4.90;3.80;;;;;;;7.05;97.80;98539.06;106387;1253;69484;-59
2024/02/10 07:14:22;;;;;;;4.40;3.90;;;;;;;7.12;97.18;98537.66;105752;1250;72986;-58
2024/02/10 07:17:26;;;;;;;4.50;4.10;;;;;;;7.18;97.62;98543.50;105753;1253;60771;-58
2024/02/10 07:20:32;;;;;;;4.80;4.10;;;;;;;7.23;97.34;98546.23;105463;1251;62879;-60
2024/02/10 07:23:42;;;;;;;4.60;3.80;;;;;;;7.23;97.44;98549.35;105062;1251;72086;-58
2024/02/10 07:26:56;;;;;;;4.60;3.90;;;;;;;7.25;97.61;98549.26;104757;1257;69878;-58
2024/02/10 07:30:04;;;;;;;4.30;3.90;;;;;;;7.32;97.38;98550.70;105015;1251;71422;-59
2024/02/10 07:32:37;;;;;;;5.50;3.80;;;;;;;7.32;97.17;98551.03;105078;1254;62162;-59
2024/02/10 07:35:50;;;;;;;5.00;4.50;;;;;;;7.30;96.83;98555.88;105506;1250;61078;-62
2024/02/10 07:38:58;;;;;;;4.20;3.80;;;;;;;7.28;97.89;98550.90;105118;1250;72131;-58
2024/02/10 07:41:40;;;;;;;4.10;3.70;;;;;;;7.36;97.03;98554.86;105371;1251;69365;-58
2024/02/10 07:44:49;;;;;;;4.70;3.30;;;;;;;7.15;99.01;98552.89;105330;1257;71184;-60
2024/02/10 07:48:01;;;;;;;4.40;3.50;;;;;;;7.03;100.00;98550.26;104705;1256;60138;-59
2024/02/10 07:51:09;;;;;;;4.50;4.00;;;;;;;6.93;100.00;98542.89;104418;1267;59945;-59
2024/02/10 07:54:20;;;;;;;4.30;3.30;;;;;;;6.87;100.00;98546.15;105343;1251;72762;-58
2024/02/10 07:57:34;;;;;;;4.10;3.70;;;;;;;6.91;100.00;98544.56;105798;1250;72662;-58
2024/02/10 08:00:42;;;;;;;4.20;3.80;;;;;;;6.90;100.00;98543.58;106355;1251;72686;-59
2024/02/10 08:03:36;;;;;;;4.30;3.40;;;;;;;6.94;100.00;98541.83;105632;1251;60809;-59
2024/02/10 08:06:42;;;;;;;4.00;3.50;;;;;;;6.97;100.00;98551.41;105710;1250;59830;-59
2024/02/10 08:09:52;;;;;;;4.40;3.80;;;;;;;7.20;100.00;98551.43;105464;1254;72762;-59
2024/02/10 08:13:03;;;;;;;6.10;3.90;;;;;;;7.39;99.90;98551.77;105118;1250;70094;-59
2024/02/10 08:16:14;;;;;;;4.10;3.20;;;;;;;7.40;99.19;98551.33;105658;1250;72522;-59
2024/02/10 08:18:50;;;;;;;5.70;3.90;;;;;;;7.40;99.03;98548.19;106066;1251;61673;-57
2024/02/10 08:21:32;;;;;;;4.30;3.80;;;;;;;7.40;99.22;98544.36;104640;1270;60031;-58
2024/02/10 08:24:43;;;;;;;6.50;4.10;;;;;;;7.48;98.86;98544.02;105152;1254;73491;-58
2024/02/10 08:27:26;;;;;;;4.60;4.20;;;;;;;7.52;98.62;98544.50;105590;1253;70090;-60
2024/02/10 08:30:31;;;;;;;4.60;4.20;;;;;;;7.57;98.14;98551.09;105263;1251;72465;-59
2024/02/10 08:33:48;;;;;;;4.70;4.10;;;;;;;7.60;98.00;98550.75;104459;1257;61128;-58
2024/02/10 08:36:57;;;;;;;4.70;3.80;;;;;;;7.56;96.74;98551.14;104898;1254;61032;-59
2024/02/10 08:40:09;;;;;;;6.90;4.30;;;;;;;7.54;97.03;98558.88;106283;1251;72839;-59
2024/02/10 08:43:20;;;;;;;7.30;4.10;;;;;;;7.55;96.63;98555.90;106645;1250;68595;-59
2024/02/10 08:46:11;;;;;;;5.70;3.90;;;;;;;7.50;97.84;98558.55;105811;1254;74722;-58
2024/02/10 08:49:17;;;;;;;4.70;4.20;;;;;;;7.50;97.77;98554.90;105329;1251;60615;-58
2024/02/10 08:52:31;;;;;;;4.40;4.00;;;;;;;7.51;98.15;98551.39;104754;1250;59809;-59
2024/02/10 08:55:45;;;;;;;5.90;3.90;;;;;;;7.50;98.39;98547.25;104907;1254;72954;-58
2024/02/10 08:58:57;;;;;;;4.00;3.60;;;;;;;7.95;94.10;98544.16;105471;1251;69183;-60
2024/02/10 09:02:08;;;;;;;4.20;3.80;;;;;;;7.63;96.11;98541.57;107341;1251;73334;-59
2024/02/10 09:05:20;;;;;;;4.30;3.90;;;;;;;7.63;97.03;98543.99;106392;1254;59969;-59
2024/02/10 09:08:27;;;;;;;5.20;3.60;;;;;;;7.66;97.72;98540.19;106036;1254;59981;-58
2024/02/10 09:11:36;;;;;;;4.70;3.50;;;;;;;7.63;97.74;98532.65;106601;1250;72598;-58
2024/02/10 09:15:07;;;;;;;5.80;3.30;;;;;;;7.67;97.87;98540.84;105802;1250;71102;-58
2024/02/10 09:18:18;;;;;;;3.30;3.00;;;;;;;7.65;96.95;98542.67;105412;1251;74104;-57
2024/02/10 09:21:28;;;;;;;3.40;3.10;;;;;;;7.65;97.51;98546.52;105759;1251;60760;-58
2024/02/10 09:24:43;;;;;;;3.90;2.90;;;;;;;7.67;97.68;98548.50;105306;1250;59995;-58
2024/02/10 09:27:59;;;;;;;4.40;2.50;;;;;;;7.63;97.09;98549.23;105297;1250;74161;-58
2024/02/10 09:31:13;;;;;;;3.50;2.80;;;;;;;7.07;100.00;98548.53;106413;1250;69350;-58
2024/02/10 09:34:23;;;;;;;3.20;2.40;;;;;;;7.07;100.00;98550.27;105100;1254;72309;-58
2024/02/10 09:37:35;;;;;;;3.50;3.00;;;;;;;7.41;100.00;98550.08;106147;1254;59672;-58
2024/02/10 09:40:11;;;;;;;3.40;2.60;;;;;;;7.53;99.96;98546.54;106001;1251;59695;-59
2024/02/10 09:42:38;;;;;;;3.20;2.60;;;;;;;7.65;99.72;98548.45;104984;1251;72738;-58
2024/02/10 09:45:45;;;;;;;4.40;3.10;;;;;;;7.54;98.99;98548.29;105435;1254;70182;-58
2024/02/10 09:51:27;;;;;;;2.90;2.40;;;;;;;7.21;100.00;98549.44;103030;1289;615137;-57
2024/02/10 09:54:41;;;;;;;3.30;2.90;;;;;;;7.91;95.28;98536.00;103869;1266;62019;-56
2024/02/10 09:57:41;;;;;;;3.00;2.60;;;;;;;8.02;94.14;98541.58;106061;1254;60347;-57
2024/02/10 10:00:19;;;;;;;2.90;2.70;;;;;;;7.93;94.81;98544.80;105466;1259;73112;-58
2024/02/10 10:03:00;;;;;;;3.10;2.90;;;;;;;7.88;95.61;98540.02;103989;1253;776253;-57
2024/02/10 10:06:26;;;;;;;3.10;2.50;;;;;;;7.86;96.30;98532.41;105443;1251;74074;-59
2024/02/10 10:09:37;;;;;;;2.50;2.30;;;;;;;7.84;96.47;98536.35;104522;1256;61310;-58
2024/02/10 10:12:26;;;;;;;2.50;2.30;;;;;;;7.89;96.66;98536.44;105484;1250;60211;-59
2024/02/10 10:15:04;;;;;;;2.40;2.20;;;;;;;7.86;96.18;98530.51;105967;1254;72340;-56
2024/02/10 10:17:38;;;;;;;2.40;2.20;;;;;;;7.76;97.28;98529.75;105194;1251;69680;-59
2024/02/10 10:21:04;;;;;;;2.80;2.60;;;;;;;7.72;98.17;98525.92;105280;1256;71710;-56
2024/02/10 10:23:34;;;;;;;2.30;2.10;;;;;;;7.73;98.40;98527.13;105600;1250;61050;-56
2024/02/10 10:27:02;;;;;;;3.20;2.20;;;;;;;7.73;98.82;98524.83;104547;1259;61627;-57
2024/02/10 10:29:30;;;;;;;3.20;2.50;;;;;;;7.72;99.01;98525.91;104748;1251;73673;-57
2024/02/10 10:32:16;;;;;;;3.00;2.50;;;;;;;7.72;98.63;98521.60;105268;1257;70731;-58
2024/02/10 10:34:45;;;;;;;2.60;2.10;;;;;;;7.72;98.84;98521.77;105327;1250;73101;-58
2024/02/10 10:37:32;;;;;;;2.30;2.10;;;;;;;7.80;99.30;98519.61;105737;1250;60955;-58
2024/02/10 10:40:55;;;;;;;2.80;2.00;;;;;;;7.84;98.86;98522.93;105647;1254;61764;-57
2024/02/10 10:44:01;;;;;;;3.40;2.80;;;;;;;7.92;98.27;98521.63;105484;1251;73279;-57
2024/02/10 10:47:10;;;;;;;2.20;2.00;;;;;;;7.86;98.42;98515.13;105150;1250;69641;-57
2024/02/10 10:49:37;;;;;;;3.60;3.30;;;;;;;7.87;98.01;98515.27;105144;1256;73625;-57
2024/02/10 10:52:23;;;;;;;4.40;3.80;;;;;;;7.70;99.82;98512.10;106999;1251;61623;-57
2024/02/10 10:55:10;;;;;;;5.20;3.20;;;;;;;7.64;100.00;98515.00;105677;1251;59766;-58
2024/02/10 10:57:57;;;;;;;5.00;3.20;;;;;;;7.56;100.00;98514.31;104632;1250;74414;-58
2024/02/10 11:01:21;;;;;;;4.00;3.10;;;;;;;7.48;100.00;98517.70;105985;1253;70143;-58
2024/02/10 11:03:48;;;;;;;3.00;2.60;;;;;;;7.39;100.00;98512.00;105078;1251;72453;-58
2024/02/10 11:06:35;;;;;;;2.60;2.40;;;;;;;7.39;100.00;98509.05;105440;1253;61011;-58
2024/02/10 11:09:03;;;;;;;2.60;2.40;;;;;;;7.67;100.00;98511.02;105498;1254;60303;-58
2024/02/10 11:12:08;;;;;;;3.20;2.90;;;;;;;7.77;100.00;98510.37;106156;1250;73357;-59
2024/02/10 11:15:20;;;;;;;3.00;2.80;;;;;;;7.76;100.00;98508.31;106229;1250;69348;-59
2024/02/10 11:18:02;;;;;;;2.70;2.40;;;;;;;7.70;100.00;98509.81;104803;1254;73213;-59
2024/02/10 11:20:39;;;;;;;2.90;2.70;;;;;;;7.63;100.00;98514.51;105509;1254;61129;-59
2024/02/10 11:24:08;;;;;;;4.60;3.20;;;;;;;7.37;100.00;98513.13;105267;1253;62885;-59
2024/02/10 11:26:38;;;;;;;3.60;3.00;;;;;;;7.23;100.00;98518.34;104915;1254;73039;-58
2024/02/10 11:29:06;;;;;;;2.70;2.30;;;;;;;7.35;100.00;98517.97;105931;1254;69628;-58
2024/02/10 11:31:56;;;;;;;3.50;2.10;;;;;;;7.64;100.00;98513.95;105783;1251;72443;-59
2024/02/10 11:34:49;;;;;;;2.60;2.30;;;;;;;7.72;100.00;98514.79;105607;1252;60937;-59
2024/02/10 11:37:29;;;;;;;5.00;2.90;;;;;;;7.73;100.00;98510.02;104739;1254;59950;-59
2024/02/10 11:39:57;;;;;;;2.60;2.40;;;;;;;7.75;100.00;98511.11;105406;1254;72857;-59
2024/02/10 11:42:23;;;;;;;2.50;2.30;;;;;;;7.67;100.00;98515.70;105423;1250;68772;-60
2024/02/10 11:45:17;;;;;;;2.70;2.10;;;;;;;7.76;100.00;98516.65;106469;1254;73401;-59
2024/02/10 11:48:03;;;;;;;2.20;2.00;;;;;;;7.76;100.00;98513.89;105699;1251;62446;-61
2024/02/10 11:51:27;;;;;;;2.40;2.20;;;;;;;7.77;100.00;98511.21;106913;1251;61711;-61
2024/02/10 11:54:38;;;;;;;2.30;2.10;;;;;;;7.68;100.00;98512.50;106058;1254;71909;-60
2024/02/10 11:57:08;;;;;;;3.50;2.20;;;;;;;7.57;100.00;98521.62;105511;1252;69625;-58
2024/02/10 12:00:29;;;;;;;3.30;2.70;;;;;;;7.46;100.00;98521.43;104479;1251;73067;-57
2024/02/10 12:02:56;;;;;;;3.20;2.90;;;;;;;7.73;100.00;98516.80;105286;1251;61365;-58
2024/02/10 12:05:28;;;;;;;4.30;2.20;;;;;;;7.38;100.00;98520.27;105225;1251;60157;-59
2024/02/10 12:08:16;;;;;;;2.60;2.40;;;;;;;7.31;100.00;98518.86;104576;1257;72848;-60
2024/02/10 12:11:11;;;;;;;2.20;2.00;;;;;;;7.03;100.00;98520.30;105278;1254;69873;-58
2024/02/10 12:13:38;;;;;;;2.20;2.10;;;;;;;6.92;100.00;98519.07;105141;1252;73109;-58
2024/02/10 12:16:57;;;;;;;3.30;2.40;;;;;;;6.97;100.00;98519.72;104733;1253;62549;-58
2024/02/10 12:20:04;;;;;;;2.30;2.20;;;;;;;7.28;100.00;98520.20;105940;1255;59611;-59
2024/02/10 12:23:12;;;;;;;2.60;2.40;;;;;;;7.04;100.00;98523.24;104963;1254;72979;-57
2024/02/10 12:25:39;;;;;;;2.70;2.50;;;;;;;7.04;100.00;98520.08;105001;1254;68987;-58
2024/02/10 12:28:26;;;;;;;;;;;;;;;7.13;100.00;98517.60;105993;1251;71766;-58
2024/02/10 12:30:56;;;;;;;2.10;2.00;;;;;;;7.15;100.00;98519.22;104566;1251;60027;-57
2024/02/10 12:33:42;;;;;;;2.20;2.00;;;;;;;7.02;100.00;98521.05;105287;1251;59907;-58
2024/02/10 12:36:31;;;;;;;2.20;2.00;;;;;;;6.90;100.00;98521.78;104757;1254;73456;-57
2024/02/10 12:39:16;;;;;;;2.40;2.20;;;;;;;7.14;100.00;98520.00;104465;1252;69770;-58
2024/02/10 12:42:26;;;;;;;2.20;1.90;;;;;;;7.00;100.00;98525.48;105187;1254;73009;-57
2024/02/10 12:44:54;;;;;;;3.10;2.00;;;;;;;7.32;100.00;98521.20;105267;1254;59790;-58
2024/02/10 12:47:21;;;;;;;2.20;2.00;;;;;;;7.47;100.00;98520.70;106597;1251;59604;-59
2024/02/10 12:49:50;;;;;;;2.50;2.00;;;;;;;7.48;100.00;98521.51;104602;1267;73073;-58
2024/02/10 12:52:38;;;;;;;1.80;1.70;;;;;;;7.26;100.00;98523.44;104856;1251;70798;-58
2024/02/10 12:55:44;;;;;;;2.20;1.90;;;;;;;7.14;100.00;98524.86;105526;1254;72448;-58
2024/02/10 12:58:19;;;;;;;2.30;2.10;;;;;;;7.09;100.00;98526.13;105134;1251;61168;-58
2024/02/10 13:00:46;;;;;;;1.90;1.80;;;;;;;7.04;100.00;98527.23;105362;1252;59973;-58
2024/02/10 13:03:19;;;;;;;1.60;1.50;;;;;;;7.05;100.00;98525.84;106008;1251;71880;-59
2024/02/10 13:06:07;;;;;;;2.10;2.00;;;;;;;7.08;100.00;98533.34;105354;1254;71503;-59
2024/02/10 13:08:34;;;;;;;2.60;2.10;;;;;;;7.20;100.00;98532.23;105653;1251;72449;-59
2024/02/10 13:11:57;;;;;;;1.70;1.60;;;;;;;7.10;100.00;98525.93;105337;1256;62410;-59
2024/02/10 13:14:26;;;;;;;1.90;1.80;;;;;;;7.12;100.00;98523.06;105605;1251;60131;-63
2024/02/10 13:17:49;;;;;;;1.80;1.70;;;;;;;7.29;100.00;98527.30;104511;1257;74417;-60
2024/02/10 13:20:59;;;;;;;2.00;1.80;;;;;;;7.22;100.00;98529.70;105289;1256;69948;-60
2024/02/10 13:23:32;;;;;;;2.10;1.80;;;;;;;7.23;100.00;98515.55;105607;1254;72807;-59
2024/02/10 13:26:42;;;;;;;1.90;1.70;;;;;;;7.37;100.00;98521.67;105338;1254;60756;-60
2024/02/10 13:29:12;;;;;;;2.60;1.90;;;;;;;7.35;100.00;98521.46;104780;1254;60000;-59
2024/02/10 13:32:16;;;;;;;2.20;2.10;;;;;;;7.39;100.00;98527.17;105043;1254;72912;-59
2024/02/10 13:34:45;;;;;;;2.40;2.20;;;;;;;7.18;100.00;98528.52;105230;1254;69832;-59
2024/02/10 14:00:36;;;;;;;2.90;2.60;;;;;;;7.48;100.00;98528.49;105154;1254;60269;-58
2024/02/10 14:03:00;;;;;;;3.00;2.70;;;;;;;7.33;100.00;98532.89;104489;1257;73152;-58
2024/02/10 14:11:01;;;;;;;3.90;3.30;;;;;;;7.43;100.00;98524.89;104545;1256;60841;-57
2024/02/10 14:13:33;;;;;;;;;;;;;;;7.36;100.00;98521.55;106209;1253;60090;-57
2024/02/10 14:17:09;;;;;;;3.50;3.00;;;;;;;7.45;100.00;98520.96;105970;1254;74886;-58
2024/02/10 14:20:22;;;;;;;3.70;3.40;;;;;;;7.39;100.00;98521.95;104998;1256;70505;-57
2024/02/10 14:22:49;;;;;;;4.20;3.80;;;;;;;7.36;100.00;98526.97;105611;1251;72493;-57
2024/02/10 14:25:36;;;;;;;4.10;3.80;;;;;;;7.22;100.00;98527.30;106023;1251;62572;-57
2024/02/10 14:28:15;;;;;;;4.80;4.30;;;;;;;7.21;100.00;98525.79;106005;1254;60035;-57
2024/02/10 14:30:47;;;;;;;4.60;4.20;;;;;;;7.31;100.00;98526.16;105254;1254;72100;-57
2024/02/10 14:33:54;;;;;;;4.90;4.50;;;;;;;7.27;100.00;98520.23;105504;1251;69523;-58
2024/02/10 14:39:56;;;;;;;4.10;3.80;;;;;;;7.32;100.00;98527.88;105118;1254;60928;-58
2024/02/10 14:42:23;;;;;;;3.90;3.60;;;;;;;7.30;100.00;98523.05;105077;1255;60443;-59
2024/02/10 14:44:54;;;;;;;4.10;3.80;;;;;;;7.27;100.00;98526.02;104742;1251;74006;-59
2024/02/10 14:47:24;;;;;;;3.60;3.30;;;;;;;7.22;100.00;98528.00;105453;1250;69324;-59
2024/02/10 14:50:29;;;;;;;4.00;3.70;;;;;;;7.20;100.00;98529.96;105525;1252;72289;-59
2024/02/10 14:53:02;;;;;;;3.50;3.20;;;;;;;7.28;100.00;98525.27;105128;1251;60556;-57
2024/02/10 14:55:30;;;;;;;3.50;3.20;;;;;;;7.18;100.00;98532.68;104477;1274;60104;-57
2024/02/10 14:57:58;;;;;;;3.80;3.50;;;;;;;7.22;100.00;98534.80;104834;1263;73493;-58
2024/02/10 15:01:04;;;;;;;3.80;3.50;;;;;;;7.16;100.00;98535.76;105154;1254;70006;-57
2024/02/10 15:03:38;;;;;;;4.00;3.70;;;;;;;7.15;100.00;98541.73;105095;1255;73299;-58
2024/02/10 15:07:02;;;;;;;3.70;3.40;;;;;;;7.41;100.00;98537.52;105306;1251;60976;-56
2024/02/10 15:10:13;;;;;;;4.10;3.70;;;;;;;7.32;100.00;98530.30;105711;1254;60549;-57
2024/02/10 15:12:40;;;;;;;3.70;3.40;;;;;;;8.06;99.78;98536.98;104988;1251;73736;-57
2024/02/10 15:15:27;;;;;;;3.90;3.50;;;;;;;7.39;100.00;98546.67;105418;1251;69844;-58
2024/02/10 15:18:31;;;;;;;3.80;3.50;;;;;;;7.36;100.00;98552.09;105467;1254;72636;-57
2024/02/10 15:21:07;;;;;;;5.00;3.80;;;;;;;7.39;100.00;98550.71;105495;1254;61307;-56
2024/02/10 15:23:34;;;;;;;4.10;3.80;;;;;;;7.35;100.00;98551.05;105767;1254;60642;-57
2024/02/10 15:26:01;;;;;;;4.00;3.70;;;;;;;7.22;100.00;98551.87;104547;1254;74515;-57
2024/02/10 15:28:47;;;;;;;3.80;3.50;;;;;;;7.25;100.00;98557.28;105208;1251;69441;-58
2024/02/10 15:31:34;;;;;;;3.50;3.30;;;;;;;7.49;100.00;98562.42;105332;1263;72712;-58
2024/02/10 15:34:19;;;;;;;3.80;3.50;;;;;;;7.39;100.00;98569.36;105055;1254;60548;-58
2024/02/10 15:37:04;;;;;;;4.20;3.80;;;;;;;7.43;100.00;98576.35;105854;1251;60622;-57
2024/02/10 15:39:31;;;;;;;4.10;3.80;;;;;;;7.33;100.00;98573.99;106038;1254;73312;-58
2024/02/10 15:42:17;;;;;;;4.20;3.90;;;;;;;7.35;100.00;98580.53;105307;1254;70739;-58
2024/02/10 15:45:42;;;;;;;4.60;3.90;;;;;;;7.30;100.00;98584.27;104564;1270;72842;-58
2024/02/10 15:48:49;;;;;;;4.30;3.90;;;;;;;7.39;100.00;98576.17;106064;1251;60545;-57
2024/02/10 15:51:56;;;;;;;4.40;4.00;;;;;;;7.57;100.00;98570.96;105359;1254;60453;-58
2024/02/10 15:55:08;;;;;;;4.00;3.60;;;;;;;7.52;100.00;98578.88;105494;1251;73624;-58
2024/02/10 15:58:21;;;;;;;4.70;3.70;;;;;;;7.47;100.00;98571.77;105537;1255;69745;-58
2024/02/10 16:00:59;;;;;;;4.00;3.70;;;;;;;7.46;100.00;98574.78;105388;1251;73064;-59
2024/02/10 16:04:08;;;;;;;3.90;3.60;;;;;;;7.48;100.00;98582.38;105113;1255;60619;-60
2024/02/10 16:06:43;;;;;;;3.80;3.50;;;;;;;7.46;100.00;98583.88;104696;1256;60451;-61
2024/02/10 16:09:48;;;;;;;3.90;3.60;;;;;;;7.40;100.00;98581.15;105384;1251;74058;-62
2024/02/10 16:12:59;;;;;;;4.50;4.20;;;;;;;7.42;100.00;98578.11;105565;1254;68788;-61
2024/02/10 16:15:26;;;;;;;4.70;3.90;;;;;;;7.42;100.00;98577.60;105599;1254;72609;-61
2024/02/10 16:18:49;;;;;;;4.40;4.00;;;;;;;7.47;100.00;98577.89;105219;1254;60647;-61
2024/02/10 16:22:00;;;;;;;4.70;4.20;;;;;;;7.51;100.00;98582.39;105912;1251;60694;-60
2024/02/10 16:25:06;;;;;;;4.50;3.70;;;;;;;7.52;100.00;98589.33;104645;1267;74072;-62
2024/02/10 16:27:42;;;;;;;3.60;3.30;;;;;;;7.85;99.99;98596.98;105067;1254;69909;-60
2024/02/10 16:31:10;;;;;;;3.60;3.40;;;;;;;7.65;100.00;98611.40;104846;1251;71340;-60
2024/02/10 16:34:18;;;;;;;3.80;3.50;;;;;;;7.70;100.00;98610.66;105403;1251;60977;-60
2024/02/10 16:36:58;;;;;;;4.10;3.70;;;;;;;7.74;100.00;98612.18;105400;1251;60463;-61
2024/02/10 16:39:50;;;;;;;3.90;3.60;;;;;;;7.63;100.00;98596.33;104626;1253;73002;-60
2024/02/10 16:43:15;;;;;;;4.00;3.70;;;;;;;7.77;100.00;98618.83;105131;1256;69145;-60
2024/02/10 16:45:46;;;;;;;3.60;3.30;;;;;;;7.80;100.00;98615.94;105229;1254;73397;-60
2024/02/10 16:48:14;;;;;;;;;;;;;;;7.82;100.00;98612.53;105767;1254;60961;-61
2024/02/10 16:50:41;;;;;;;3.50;3.20;;;;;;;7.83;100.00;98614.57;105289;1251;60686;-61
2024/02/10 16:53:29;;;;;;;4.30;3.80;;;;;;;7.75;100.00;98609.52;105933;1256;75191;-61
2024/02/10 16:56:55;;;;;;;4.10;3.70;;;;;;;7.80;100.00;98603.00;105358;1254;71680;-61
2024/02/10 16:59:23;;;;;;;4.20;3.80;;;;;;;7.85;100.00;98615.33;105912;1251;72945;-61
2024/02/10 17:01:54;;;;;;;4.00;3.30;;;;;;;7.83;100.00;98619.96;104753;1256;61787;-60
2024/02/10 17:04:39;;;;;;;3.40;3.10;;;;;;;7.82;100.00;98624.90;105857;1254;60471;-60
2024/02/10 17:08:03;;;;;;;6.20;4.10;;;;;;;7.85;100.00;98623.17;105142;1254;73386;-62
2024/02/10 17:10:37;;;;;;;3.60;3.30;;;;;;;7.96;100.00;98620.55;105725;1251;70102;-60
2024/02/10 17:14:00;;;;;;;4.10;3.70;;;;;;;7.97;99.95;98616.69;104774;1251;73669;-61
2024/02/10 17:17:14;;;;;;;3.90;3.60;;;;;;;8.04;99.13;98613.72;105244;1256;59898;-60
2024/02/10 17:19:42;;;;;;;5.40;4.00;;;;;;;8.05;98.58;98617.70;104850;1254;60565;-60
2024/02/10 17:22:27;;;;;;;6.10;4.00;;;;;;;8.07;97.99;98621.08;104939;1254;74809;-60
2024/02/10 17:25:32;;;;;;;4.30;3.90;;;;;;;8.09;98.60;98622.38;104850;1255;69760;-60
2024/02/10 17:28:37;;;;;;;5.10;4.40;;;;;;;8.11;98.02;98620.00;105921;1251;73341;-61
2024/02/10 17:31:50;;;;;;;5.00;4.50;;;;;;;8.14;98.14;98617.95;105667;1254;61017;-63
2024/02/10 17:35:03;;;;;;;4.40;4.00;;;;;;;8.18;97.58;98614.25;105784;1253;60555;-61
2024/02/10 17:37:31;;;;;;;4.90;3.70;;;;;;;8.21;97.21;98606.77;105999;1254;73885;-60
2024/02/10 17:40:56;;;;;;;4.60;4.00;;;;;;;8.22;96.81;98607.45;105184;1251;69128;-60
2024/02/10 17:44:10;;;;;;;4.70;4.30;;;;;;;8.29;96.36;98614.40;105993;1251;73459;-60
2024/02/10 17:47:17;;;;;;;4.20;3.90;;;;;;;7.79;99.86;98624.84;105098;1254;62501;-61
2024/02/10 17:49:47;;;;;;;5.60;4.20;;;;;;;7.87;100.00;98624.67;104907;1257;60607;-59
2024/02/10 17:52:17;;;;;;;5.50;5.00;;;;;;;7.67;100.00;98619.50;106034;1255;74311;-60
2024/02/10 17:55:42;;;;;;;5.80;5.10;;;;;;;8.19;99.13;98616.66;106140;1254;69883;-60
2024/02/10 17:58:15;;;;;;;4.60;4.20;;;;;;;8.12;98.32;98613.48;105292;1254;72781;-60
2024/02/10 18:01:03;;;;;;;7.60;5.00;;;;;;;8.13;98.00;98612.38;104788;1254;62390;-60
2024/02/10 18:03:48;;;;;;;5.20;4.70;;;;;;;7.69;99.85;98614.70;104967;1256;61531;-60
2024/02/10 18:06:33;;;;;;;5.70;5.00;;;;;;;7.58;100.00;98610.32;105067;1254;73737;-60
2024/02/10 18:09:39;;;;;;;6.00;5.40;;;;;;;7.61;100.00;98614.39;104775;1260;69740;-60
2024/02/10 18:12:49;;;;;;;5.70;5.20;;;;;;;7.93;100.00;98618.80;104663;1256;72541;-61
2024/02/10 18:15:59;;;;;;;5.30;4.80;;;;;;;7.92;100.00;98622.35;104963;1254;60539;-60